sensor_id;sensor_type;location;lat;lon;timestamp;P1;durP1;ratioP1;P2;durP2;ratioP2
67776;SDS011;54576;52.020;5.536;2022-12-18T00:01:04;70.70;;;25.15;;
67776;SDS011;54576;52.020;5.536;2022-12-18T00:03:38;63.72;;;24.63;;
67776;SDS011;54576;52.020;5.536;2022-12-18T00:06:04;64.43;;;24.80;;
67776;SDS011;54576;52.020;5.536;2022-12-18T00:08:29;62.65;;;26.13;;
67776;SDS011;54576;52.020;5.536;2022-12-18T00:10:55;65.93;;;24.33;;
67776;SDS011;54576;52.020;5.536;2022-12-18T00:13:27;70.63;;;26.15;;
67776;SDS011;54576;52.020;5.536;2022-12-18T00:15:53;67.47;;;23.85;;
67776;SDS011;54576;52.020;5.536;2022-12-18T00:18:19;63.70;;;25.58;;
67776;SDS011;54576;52.020;5.536;2022-12-18T00:20:46;69.68;;;25.75;;
67776;SDS011;54576;52.020;5.536;2022-12-18T00:23:11;64.40;;;25.35;;
67776;SDS011;54576;52.020;5.536;2022-12-18T00:25:40;73.18;;;25.52;;
67776;SDS011;54576;52.020;5.536;2022-12-18T00:28:05;66.90;;;27.07;;
67776;SDS011;54576;52.020;5.536;2022-12-18T00:30:31;68.88;;;25.40;;
67776;SDS011;54576;52.020;5.536;2022-12-18T00:32:57;68.17;;;26.47;;
67776;SDS011;54576;52.020;5.536;2022-12-18T00:35:23;54.90;;;22.17;;
67776;SDS011;54576;52.020;5.536;2022-12-18T00:37:48;76.27;;;26.43;;
67776;SDS011;54576;52.020;5.536;2022-12-18T00:40:14;64.32;;;26.02;;
67776;SDS011;54576;52.020;5.536;2022-12-18T00:42:40;76.32;;;26.60;;
67776;SDS011;54576;52.020;5.536;2022-12-18T00:45:24;56.63;;;23.83;;
67776;SDS011;54576;52.020;5.536;2022-12-18T00:47:51;73.80;;;26.73;;
67776;SDS011;54576;52.020;5.536;2022-12-18T00:50:17;72.47;;;26.30;;
67776;SDS011;54576;52.020;5.536;2022-12-18T00:52:45;71.15;;;28.25;;
67776;SDS011;54576;52.020;5.536;2022-12-18T00:55:11;68.50;;;25.50;;
67776;SDS011;54576;52.020;5.536;2022-12-18T00:57:37;80.57;;;28.40;;
67776;SDS011;54576;52.020;5.536;2022-12-18T01:00:04;70.32;;;27.55;;
67776;SDS011;54576;52.020;5.536;2022-12-18T01:02:35;69.20;;;27.57;;
67776;SDS011;54576;52.020;5.536;2022-12-18T01:05:00;67.57;;;26.07;;
67776;SDS011;54576;52.020;5.536;2022-12-18T01:07:26;69.27;;;27.70;;
67776;SDS011;54576;52.020;5.536;2022-12-18T01:09:55;78.07;;;28.97;;
67776;SDS011;54576;52.020;5.536;2022-12-18T01:12:21;80.25;;;29.95;;
67776;SDS011;54576;52.020;5.536;2022-12-18T01:14:46;77.27;;;28.60;;
67776;SDS011;54576;52.020;5.536;2022-12-18T01:17:12;74.10;;;28.25;;
67776;SDS011;54576;52.020;5.536;2022-12-18T01:19:39;67.32;;;26.17;;
67776;SDS011;54576;52.020;5.536;2022-12-18T01:22:05;71.47;;;27.45;;
67776;SDS011;54576;52.020;5.536;2022-12-18T01:24:31;65.80;;;25.83;;
67776;SDS011;54576;52.020;5.536;2022-12-18T01:26:56;66.00;;;25.60;;
67776;SDS011;54576;52.020;5.536;2022-12-18T01:29:22;65.83;;;26.17;;
67776;SDS011;54576;52.020;5.536;2022-12-18T01:31:48;61.70;;;25.07;;
67776;SDS011;54576;52.020;5.536;2022-12-18T01:34:15;68.47;;;25.27;;
67776;SDS011;54576;52.020;5.536;2022-12-18T01:36:40;60.23;;;25.10;;
67776;SDS011;54576;52.020;5.536;2022-12-18T01:39:08;60.57;;;25.60;;
67776;SDS011;54576;52.020;5.536;2022-12-18T01:41:37;62.97;;;24.20;;
67776;SDS011;54576;52.020;5.536;2022-12-18T01:47:14;55.23;;;24.20;;
67776;SDS011;54576;52.020;5.536;2022-12-18T01:49:47;63.23;;;23.80;;
67776;SDS011;54576;52.020;5.536;2022-12-18T01:52:16;52.25;;;22.70;;
67776;SDS011;54576;52.020;5.536;2022-12-18T01:54:43;61.73;;;23.67;;
67776;SDS011;54576;52.020;5.536;2022-12-18T01:59:38;60.70;;;23.80;;
67776;SDS011;54576;52.020;5.536;2022-12-18T02:02:05;56.83;;;22.27;;
67776;SDS011;54576;52.020;5.536;2022-12-18T02:04:32;55.47;;;22.23;;
67776;SDS011;54576;52.020;5.536;2022-12-18T02:07:00;61.57;;;22.53;;
67776;SDS011;54576;52.020;5.536;2022-12-18T02:09:33;56.43;;;22.17;;
67776;SDS011;54576;52.020;5.536;2022-12-18T02:14:49;51.70;;;22.13;;
67776;SDS011;54576;52.020;5.536;2022-12-18T02:17:37;56.03;;;22.10;;
67776;SDS011;54576;52.020;5.536;2022-12-18T02:20:21;47.90;;;20.60;;
67776;SDS011;54576;52.020;5.536;2022-12-18T02:28:38;54.90;;;22.03;;
67776;SDS011;54576;52.020;5.536;2022-12-18T02:31:07;56.20;;;22.33;;
67776;SDS011;54576;52.020;5.536;2022-12-18T02:33:37;54.20;;;22.83;;
67776;SDS011;54576;52.020;5.536;2022-12-18T02:36:05;54.20;;;22.97;;
67776;SDS011;54576;52.020;5.536;2022-12-18T02:38:34;63.93;;;22.27;;
67776;SDS011;54576;52.020;5.536;2022-12-18T02:41:01;54.93;;;22.57;;
67776;SDS011;54576;52.020;5.536;2022-12-18T02:43:28;51.47;;;20.73;;
67776;SDS011;54576;52.020;5.536;2022-12-18T02:45:58;48.90;;;20.97;;
67776;SDS011;54576;52.020;5.536;2022-12-18T02:48:44;51.27;;;21.90;;
67776;SDS011;54576;52.020;5.536;2022-12-18T02:53:50;58.10;;;23.03;;
67776;SDS011;54576;52.020;5.536;2022-12-18T02:56:43;51.10;;;21.93;;
67776;SDS011;54576;52.020;5.536;2022-12-18T02:59:15;64.03;;;22.07;;
67776;SDS011;54576;52.020;5.536;2022-12-18T03:01:51;57.50;;;20.43;;
67776;SDS011;54576;52.020;5.536;2022-12-18T03:04:34;47.17;;;20.67;;
67776;SDS011;54576;52.020;5.536;2022-12-18T03:07:02;42.88;;;20.58;;
67776;SDS011;54576;52.020;5.536;2022-12-18T03:09:35;50.13;;;21.70;;
67776;SDS011;54576;52.020;5.536;2022-12-18T03:12:06;54.07;;;20.83;;
67776;SDS011;54576;52.020;5.536;2022-12-18T03:14:50;56.53;;;19.67;;
67776;SDS011;54576;52.020;5.536;2022-12-18T03:17:26;50.13;;;19.93;;
67776;SDS011;54576;52.020;5.536;2022-12-18T03:19:56;45.43;;;19.17;;
67776;SDS011;54576;52.020;5.536;2022-12-18T03:22:27;47.53;;;20.73;;
67776;SDS011;54576;52.020;5.536;2022-12-18T03:25:00;47.43;;;20.73;;
67776;SDS011;54576;52.020;5.536;2022-12-18T03:27:30;48.97;;;20.30;;
67776;SDS011;54576;52.020;5.536;2022-12-18T03:30:04;51.43;;;20.70;;
67776;SDS011;54576;52.020;5.536;2022-12-18T03:32:35;43.87;;;19.47;;
67776;SDS011;54576;52.020;5.536;2022-12-18T03:35:14;49.57;;;20.73;;
67776;SDS011;54576;52.020;5.536;2022-12-18T03:37:44;47.23;;;20.13;;
67776;SDS011;54576;52.020;5.536;2022-12-18T03:40:10;50.20;;;21.90;;
67776;SDS011;54576;52.020;5.536;2022-12-18T03:42:43;45.87;;;20.00;;
67776;SDS011;54576;52.020;5.536;2022-12-18T03:45:19;53.67;;;20.23;;
67776;SDS011;54576;52.020;5.536;2022-12-18T03:50:29;50.70;;;19.90;;
67776;SDS011;54576;52.020;5.536;2022-12-18T03:53:14;47.50;;;19.57;;
67776;SDS011;54576;52.020;5.536;2022-12-18T03:56:01;44.40;;;18.65;;
67776;SDS011;54576;52.020;5.536;2022-12-18T03:58:29;44.83;;;18.87;;
67776;SDS011;54576;52.020;5.536;2022-12-18T04:00:59;48.67;;;19.10;;
67776;SDS011;54576;52.020;5.536;2022-12-18T04:03:28;37.33;;;17.30;;
67776;SDS011;54576;52.020;5.536;2022-12-18T04:05:57;38.47;;;17.90;;
67776;SDS011;54576;52.020;5.536;2022-12-18T04:08:24;41.10;;;18.20;;
67776;SDS011;54576;52.020;5.536;2022-12-18T04:10:50;44.50;;;18.63;;
67776;SDS011;54576;52.020;5.536;2022-12-18T04:13:29;34.87;;;17.93;;
67776;SDS011;54576;52.020;5.536;2022-12-18T04:16:03;41.37;;;17.13;;
67776;SDS011;54576;52.020;5.536;2022-12-18T04:18:29;44.27;;;18.33;;
67776;SDS011;54576;52.020;5.536;2022-12-18T04:20:55;35.67;;;18.07;;
67776;SDS011;54576;52.020;5.536;2022-12-18T04:23:21;43.73;;;17.97;;
67776;SDS011;54576;52.020;5.536;2022-12-18T04:25:47;40.53;;;19.77;;
67776;SDS011;54576;52.020;5.536;2022-12-18T04:28:12;41.70;;;17.70;;
67776;SDS011;54576;52.020;5.536;2022-12-18T04:30:40;35.53;;;17.60;;
67776;SDS011;54576;52.020;5.536;2022-12-18T04:33:09;38.53;;;17.90;;
67776;SDS011;54576;52.020;5.536;2022-12-18T04:35:36;39.67;;;16.67;;
67776;SDS011;54576;52.020;5.536;2022-12-18T04:38:02;36.23;;;17.50;;
67776;SDS011;54576;52.020;5.536;2022-12-18T04:40:29;35.03;;;16.33;;
67776;SDS011;54576;52.020;5.536;2022-12-18T04:42:55;28.13;;;15.23;;
67776;SDS011;54576;52.020;5.536;2022-12-18T04:45:21;32.60;;;15.90;;
67776;SDS011;54576;52.020;5.536;2022-12-18T04:47:46;39.57;;;17.10;;
67776;SDS011;54576;52.020;5.536;2022-12-18T04:50:12;44.70;;;16.63;;
67776;SDS011;54576;52.020;5.536;2022-12-18T04:52:38;31.67;;;15.90;;
67776;SDS011;54576;52.020;5.536;2022-12-18T04:55:03;33.37;;;16.17;;
67776;SDS011;54576;52.020;5.536;2022-12-18T04:57:30;32.73;;;15.20;;
67776;SDS011;54576;52.020;5.536;2022-12-18T04:59:56;35.03;;;15.67;;
67776;SDS011;54576;52.020;5.536;2022-12-18T05:02:22;36.67;;;16.40;;
67776;SDS011;54576;52.020;5.536;2022-12-18T05:04:47;32.23;;;15.73;;
67776;SDS011;54576;52.020;5.536;2022-12-18T05:07:16;35.83;;;14.97;;
67776;SDS011;54576;52.020;5.536;2022-12-18T05:09:41;27.43;;;14.00;;
67776;SDS011;54576;52.020;5.536;2022-12-18T05:12:07;32.73;;;13.93;;
67776;SDS011;54576;52.020;5.536;2022-12-18T05:14:33;32.57;;;14.13;;
67776;SDS011;54576;52.020;5.536;2022-12-18T05:17:01;32.10;;;15.60;;
67776;SDS011;54576;52.020;5.536;2022-12-18T05:19:28;25.57;;;13.17;;
67776;SDS011;54576;52.020;5.536;2022-12-18T05:21:54;31.80;;;13.00;;
67776;SDS011;54576;52.020;5.536;2022-12-18T05:24:19;28.00;;;14.23;;
67776;SDS011;54576;52.020;5.536;2022-12-18T05:26:45;31.13;;;14.40;;
67776;SDS011;54576;52.020;5.536;2022-12-18T05:29:10;34.60;;;14.73;;
67776;SDS011;54576;52.020;5.536;2022-12-18T05:31:37;32.07;;;13.73;;
67776;SDS011;54576;52.020;5.536;2022-12-18T05:34:04;34.30;;;13.90;;
67776;SDS011;54576;52.020;5.536;2022-12-18T05:36:30;26.47;;;13.73;;
67776;SDS011;54576;52.020;5.536;2022-12-18T05:38:56;22.57;;;11.43;;
67776;SDS011;54576;52.020;5.536;2022-12-18T05:41:21;26.83;;;12.70;;
67776;SDS011;54576;52.020;5.536;2022-12-18T05:43:47;27.13;;;13.23;;
67776;SDS011;54576;52.020;5.536;2022-12-18T05:46:16;32.20;;;13.67;;
67776;SDS011;54576;52.020;5.536;2022-12-18T05:48:43;35.00;;;13.93;;
67776;SDS011;54576;52.020;5.536;2022-12-18T05:51:10;34.07;;;14.47;;
67776;SDS011;54576;52.020;5.536;2022-12-18T05:53:38;35.20;;;13.90;;
67776;SDS011;54576;52.020;5.536;2022-12-18T05:56:04;29.17;;;13.17;;
67776;SDS011;54576;52.020;5.536;2022-12-18T05:58:31;31.07;;;13.80;;
67776;SDS011;54576;52.020;5.536;2022-12-18T06:01:05;24.47;;;12.83;;
67776;SDS011;54576;52.020;5.536;2022-12-18T06:03:32;28.03;;;12.87;;
67776;SDS011;54576;52.020;5.536;2022-12-18T06:05:58;25.37;;;13.10;;
67776;SDS011;54576;52.020;5.536;2022-12-18T06:08:23;31.03;;;13.67;;
67776;SDS011;54576;52.020;5.536;2022-12-18T06:10:50;25.27;;;12.60;;
67776;SDS011;54576;52.020;5.536;2022-12-18T06:13:19;29.13;;;13.10;;
67776;SDS011;54576;52.020;5.536;2022-12-18T06:15:45;27.93;;;13.60;;
67776;SDS011;54576;52.020;5.536;2022-12-18T06:18:11;28.07;;;12.63;;
67776;SDS011;54576;52.020;5.536;2022-12-18T06:20:36;27.17;;;12.33;;
67776;SDS011;54576;52.020;5.536;2022-12-18T06:23:04;25.53;;;11.90;;
67776;SDS011;54576;52.020;5.536;2022-12-18T06:25:31;26.60;;;12.70;;
67776;SDS011;54576;52.020;5.536;2022-12-18T06:27:57;24.67;;;12.10;;
67776;SDS011;54576;52.020;5.536;2022-12-18T06:30:23;27.07;;;11.93;;
67776;SDS011;54576;52.020;5.536;2022-12-18T06:32:49;26.07;;;12.67;;
67776;SDS011;54576;52.020;5.536;2022-12-18T06:35:15;27.53;;;12.23;;
67776;SDS011;54576;52.020;5.536;2022-12-18T06:37:40;24.93;;;12.30;;
67776;SDS011;54576;52.020;5.536;2022-12-18T06:40:06;20.43;;;11.47;;
67776;SDS011;54576;52.020;5.536;2022-12-18T06:42:32;22.20;;;11.37;;
67776;SDS011;54576;52.020;5.536;2022-12-18T06:44:59;36.90;;;13.47;;
67776;SDS011;54576;52.020;5.536;2022-12-18T06:47:25;20.13;;;11.40;;
67776;SDS011;54576;52.020;5.536;2022-12-18T06:49:50;22.87;;;12.27;;
67776;SDS011;54576;52.020;5.536;2022-12-18T06:52:16;27.87;;;12.07;;
67776;SDS011;54576;52.020;5.536;2022-12-18T06:54:43;23.73;;;11.83;;
67776;SDS011;54576;52.020;5.536;2022-12-18T06:57:09;22.70;;;12.20;;
67776;SDS011;54576;52.020;5.536;2022-12-18T06:59:34;23.33;;;10.63;;
67776;SDS011;54576;52.020;5.536;2022-12-18T07:02:00;24.47;;;11.90;;
67776;SDS011;54576;52.020;5.536;2022-12-18T07:04:29;27.00;;;11.00;;
67776;SDS011;54576;52.020;5.536;2022-12-18T07:06:55;21.50;;;11.18;;
67776;SDS011;54576;52.020;5.536;2022-12-18T07:09:20;23.80;;;11.07;;
67776;SDS011;54576;52.020;5.536;2022-12-18T07:11:46;26.63;;;11.53;;
67776;SDS011;54576;52.020;5.536;2022-12-18T07:14:11;24.50;;;11.27;;
67776;SDS011;54576;52.020;5.536;2022-12-18T07:16:37;18.27;;;10.10;;
67776;SDS011;54576;52.020;5.536;2022-12-18T07:19:03;30.40;;;13.57;;
67776;SDS011;54576;52.020;5.536;2022-12-18T07:21:28;27.30;;;12.23;;
67776;SDS011;54576;52.020;5.536;2022-12-18T07:23:54;23.30;;;11.97;;
67776;SDS011;54576;52.020;5.536;2022-12-18T07:26:20;23.27;;;11.63;;
67776;SDS011;54576;52.020;5.536;2022-12-18T07:28:47;27.40;;;12.20;;
67776;SDS011;54576;52.020;5.536;2022-12-18T07:31:16;22.03;;;11.37;;
67776;SDS011;54576;52.020;5.536;2022-12-18T07:33:44;23.03;;;12.50;;
67776;SDS011;54576;52.020;5.536;2022-12-18T07:36:11;21.53;;;11.40;;
67776;SDS011;54576;52.020;5.536;2022-12-18T07:38:37;22.60;;;11.90;;
67776;SDS011;54576;52.020;5.536;2022-12-18T07:41:06;21.10;;;10.43;;
67776;SDS011;54576;52.020;5.536;2022-12-18T07:43:33;25.20;;;11.53;;
67776;SDS011;54576;52.020;5.536;2022-12-18T07:46:00;16.70;;;9.67;;
67776;SDS011;54576;52.020;5.536;2022-12-18T07:48:27;17.83;;;10.30;;
67776;SDS011;54576;52.020;5.536;2022-12-18T07:50:53;21.50;;;10.77;;
67776;SDS011;54576;52.020;5.536;2022-12-18T07:53:22;27.45;;;12.05;;
67776;SDS011;54576;52.020;5.536;2022-12-18T07:55:48;23.67;;;11.40;;
67776;SDS011;54576;52.020;5.536;2022-12-18T07:58:13;26.93;;;12.37;;
67776;SDS011;54576;52.020;5.536;2022-12-18T08:00:39;22.73;;;11.40;;
67776;SDS011;54576;52.020;5.536;2022-12-18T08:03:04;26.33;;;10.50;;
67776;SDS011;54576;52.020;5.536;2022-12-18T08:05:30;21.47;;;10.40;;
67776;SDS011;54576;52.020;5.536;2022-12-18T08:08:05;20.57;;;10.33;;
67776;SDS011;54576;52.020;5.536;2022-12-18T08:10:33;24.33;;;12.13;;
67776;SDS011;54576;52.020;5.536;2022-12-18T08:12:59;26.83;;;10.90;;
67776;SDS011;54576;52.020;5.536;2022-12-18T08:15:24;21.33;;;11.07;;
67776;SDS011;54576;52.020;5.536;2022-12-18T08:17:50;25.23;;;11.67;;
67776;SDS011;54576;52.020;5.536;2022-12-18T08:20:15;22.73;;;11.40;;
67776;SDS011;54576;52.020;5.536;2022-12-18T08:22:43;21.67;;;11.20;;
67776;SDS011;54576;52.020;5.536;2022-12-18T08:25:08;23.17;;;10.20;;
67776;SDS011;54576;52.020;5.536;2022-12-18T08:27:36;20.50;;;10.83;;
67776;SDS011;54576;52.020;5.536;2022-12-18T08:30:02;24.80;;;11.27;;
67776;SDS011;54576;52.020;5.536;2022-12-18T08:32:29;16.53;;;9.37;;
67776;SDS011;54576;52.020;5.536;2022-12-18T08:34:55;22.83;;;11.60;;
67776;SDS011;54576;52.020;5.536;2022-12-18T08:37:20;29.63;;;12.20;;
67776;SDS011;54576;52.020;5.536;2022-12-18T08:39:46;25.47;;;11.47;;
67776;SDS011;54576;52.020;5.536;2022-12-18T08:42:11;21.67;;;10.70;;
67776;SDS011;54576;52.020;5.536;2022-12-18T08:44:56;21.33;;;11.70;;
67776;SDS011;54576;52.020;5.536;2022-12-18T08:47:21;23.73;;;11.03;;
67776;SDS011;54576;52.020;5.536;2022-12-18T08:49:47;20.90;;;11.43;;
67776;SDS011;54576;52.020;5.536;2022-12-18T08:52:12;20.57;;;9.83;;
67776;SDS011;54576;52.020;5.536;2022-12-18T08:54:41;24.20;;;11.07;;
67776;SDS011;54576;52.020;5.536;2022-12-18T08:57:06;21.30;;;11.33;;
67776;SDS011;54576;52.020;5.536;2022-12-18T08:59:32;21.10;;;10.70;;
67776;SDS011;54576;52.020;5.536;2022-12-18T09:01:57;17.90;;;9.97;;
67776;SDS011;54576;52.020;5.536;2022-12-18T09:04:23;17.80;;;9.87;;
67776;SDS011;54576;52.020;5.536;2022-12-18T09:06:49;17.00;;;9.63;;
67776;SDS011;54576;52.020;5.536;2022-12-18T09:09:14;23.20;;;10.77;;
67776;SDS011;54576;52.020;5.536;2022-12-18T09:11:40;17.50;;;10.43;;
67776;SDS011;54576;52.020;5.536;2022-12-18T09:14:06;17.23;;;10.10;;
67776;SDS011;54576;52.020;5.536;2022-12-18T09:16:31;27.60;;;11.30;;
67776;SDS011;54576;52.020;5.536;2022-12-18T09:18:59;23.90;;;11.47;;
67776;SDS011;54576;52.020;5.536;2022-12-18T09:21:27;25.80;;;10.57;;
67776;SDS011;54576;52.020;5.536;2022-12-18T09:23:55;18.52;;;10.05;;
67776;SDS011;54576;52.020;5.536;2022-12-18T09:26:22;22.90;;;11.10;;
67776;SDS011;54576;52.020;5.536;2022-12-18T09:28:48;17.33;;;9.47;;
67776;SDS011;54576;52.020;5.536;2022-12-18T09:31:14;19.60;;;10.35;;
67776;SDS011;54576;52.020;5.536;2022-12-18T09:33:41;21.27;;;10.33;;
67776;SDS011;54576;52.020;5.536;2022-12-18T09:36:09;16.15;;;8.95;;
67776;SDS011;54576;52.020;5.536;2022-12-18T09:38:36;20.23;;;10.75;;
67776;SDS011;54576;52.020;5.536;2022-12-18T09:44:00;21.60;;;10.25;;
67776;SDS011;54576;52.020;5.536;2022-12-18T09:46:31;18.00;;;10.45;;
67776;SDS011;54576;52.020;5.536;2022-12-18T09:49:02;19.70;;;9.93;;
67776;SDS011;54576;52.020;5.536;2022-12-18T09:51:34;19.35;;;9.23;;
67776;SDS011;54576;52.020;5.536;2022-12-18T09:54:07;19.15;;;11.10;;
67776;SDS011;54576;52.020;5.536;2022-12-18T09:56:40;15.45;;;9.35;;
67776;SDS011;54576;52.020;5.536;2022-12-18T09:59:13;15.65;;;8.95;;
67776;SDS011;54576;52.020;5.536;2022-12-18T10:01:47;15.95;;;8.90;;
67776;SDS011;54576;52.020;5.536;2022-12-18T10:04:13;21.77;;;10.35;;
67776;SDS011;54576;52.020;5.536;2022-12-18T10:06:41;16.33;;;9.38;;
67776;SDS011;54576;52.020;5.536;2022-12-18T10:09:23;22.83;;;9.73;;
67776;SDS011;54576;52.020;5.536;2022-12-18T10:14:50;13.50;;;8.52;;
67776;SDS011;54576;52.020;5.536;2022-12-18T10:17:26;13.82;;;8.70;;
67776;SDS011;54576;52.020;5.536;2022-12-18T10:20:22;17.67;;;9.00;;
67776;SDS011;54576;52.020;5.536;2022-12-18T10:23:04;21.52;;;9.68;;
67776;SDS011;54576;52.020;5.536;2022-12-18T10:28:22;15.77;;;8.95;;
67776;SDS011;54576;52.020;5.536;2022-12-18T10:30:49;22.20;;;9.45;;
67776;SDS011;54576;52.020;5.536;2022-12-18T10:33:16;19.10;;;9.50;;
67776;SDS011;54576;52.020;5.536;2022-12-18T10:35:47;20.52;;;10.38;;
67776;SDS011;54576;52.020;5.536;2022-12-18T10:40:48;21.10;;;10.25;;
67776;SDS011;54576;52.020;5.536;2022-12-18T10:43:14;17.77;;;8.80;;
67776;SDS011;54576;52.020;5.536;2022-12-18T10:45:44;18.08;;;8.43;;
67776;SDS011;54576;52.020;5.536;2022-12-18T10:51:22;14.50;;;8.63;;
67776;SDS011;54576;52.020;5.536;2022-12-18T10:53:52;21.67;;;9.80;;
67776;SDS011;54576;52.020;5.536;2022-12-18T10:56:26;16.05;;;9.25;;
67776;SDS011;54576;52.020;5.536;2022-12-18T10:58:59;18.60;;;9.30;;
67776;SDS011;54576;52.020;5.536;2022-12-18T11:01:30;19.45;;;8.40;;
67776;SDS011;54576;52.020;5.536;2022-12-18T11:04:20;17.45;;;9.55;;
67776;SDS011;54576;52.020;5.536;2022-12-18T11:07:00;15.40;;;8.60;;
67776;SDS011;54576;52.020;5.536;2022-12-18T11:09:32;15.95;;;8.88;;
67776;SDS011;54576;52.020;5.536;2022-12-18T11:12:04;15.77;;;8.15;;
67776;SDS011;54576;52.020;5.536;2022-12-18T11:14:48;21.55;;;10.27;;
67776;SDS011;54576;52.020;5.536;2022-12-18T11:17:19;11.75;;;7.07;;
67776;SDS011;54576;52.020;5.536;2022-12-18T11:19:57;20.63;;;10.00;;
67776;SDS011;54576;52.020;5.536;2022-12-18T11:22:24;15.50;;;9.00;;
67776;SDS011;54576;52.020;5.536;2022-12-18T11:27:22;19.88;;;9.98;;
67776;SDS011;54576;52.020;5.536;2022-12-18T11:29:49;15.15;;;8.65;;
67776;SDS011;54576;52.020;5.536;2022-12-18T11:35:03;18.60;;;9.23;;
67776;SDS011;54576;52.020;5.536;2022-12-18T11:37:29;14.57;;;8.70;;
67776;SDS011;54576;52.020;5.536;2022-12-18T11:39:57;16.45;;;9.50;;
67776;SDS011;54576;52.020;5.536;2022-12-18T11:42:30;17.80;;;8.90;;
67776;SDS011;54576;52.020;5.536;2022-12-18T11:50:20;20.60;;;10.15;;
67776;SDS011;54576;52.020;5.536;2022-12-18T11:52:50;16.75;;;8.98;;
67776;SDS011;54576;52.020;5.536;2022-12-18T11:55:19;19.33;;;9.93;;
67776;SDS011;54576;52.020;5.536;2022-12-18T11:57:59;16.10;;;8.77;;
67776;SDS011;54576;52.020;5.536;2022-12-18T12:00:41;18.48;;;9.75;;
67776;SDS011;54576;52.020;5.536;2022-12-18T12:06:19;19.20;;;9.00;;
67776;SDS011;54576;52.020;5.536;2022-12-18T12:09:02;17.52;;;11.20;;
67776;SDS011;54576;52.020;5.536;2022-12-18T12:17:41;19.25;;;10.18;;
67776;SDS011;54576;52.020;5.536;2022-12-18T12:23:19;17.60;;;10.45;;
67776;SDS011;54576;52.020;5.536;2022-12-18T12:26:03;22.27;;;12.43;;
67776;SDS011;54576;52.020;5.536;2022-12-18T12:31:24;21.55;;;10.60;;
67776;SDS011;54576;52.020;5.536;2022-12-18T12:34:08;21.00;;;10.15;;
67776;SDS011;54576;52.020;5.536;2022-12-18T12:36:52;18.70;;;10.45;;
67776;SDS011;54576;52.020;5.536;2022-12-18T12:39:33;16.10;;;9.68;;
67776;SDS011;54576;52.020;5.536;2022-12-18T12:42:03;21.58;;;11.23;;
67776;SDS011;54576;52.020;5.536;2022-12-18T12:44:53;21.42;;;10.10;;
67776;SDS011;54576;52.020;5.536;2022-12-18T12:47:25;22.45;;;11.60;;
67776;SDS011;54576;52.020;5.536;2022-12-18T12:49:54;36.28;;;15.80;;
67776;SDS011;54576;52.020;5.536;2022-12-18T12:55:17;20.27;;;9.88;;
67776;SDS011;54576;52.020;5.536;2022-12-18T13:01:04;16.35;;;10.10;;
67776;SDS011;54576;52.020;5.536;2022-12-18T13:09:03;19.70;;;9.65;;
67776;SDS011;54576;52.020;5.536;2022-12-18T13:14:25;18.67;;;10.07;;
67776;SDS011;54576;52.020;5.536;2022-12-18T13:17:16;18.90;;;10.43;;
67776;SDS011;54576;52.020;5.536;2022-12-18T13:19:51;21.67;;;11.70;;
67776;SDS011;54576;52.020;5.536;2022-12-18T13:22:31;23.38;;;10.98;;
67776;SDS011;54576;52.020;5.536;2022-12-18T13:24:59;16.58;;;9.57;;
67776;SDS011;54576;52.020;5.536;2022-12-18T13:27:47;22.30;;;12.05;;
67776;SDS011;54576;52.020;5.536;2022-12-18T13:38:55;19.98;;;11.18;;
67776;SDS011;54576;52.020;5.536;2022-12-18T13:41:01;19.23;;;10.75;;
67776;SDS011;54576;52.020;5.536;2022-12-18T13:43:31;20.75;;;10.25;;
67776;SDS011;54576;52.020;5.536;2022-12-18T13:46:05;27.42;;;10.82;;
67776;SDS011;54576;52.020;5.536;2022-12-18T13:48:55;23.23;;;11.95;;
67776;SDS011;54576;52.020;5.536;2022-12-18T13:51:26;24.30;;;12.32;;
67776;SDS011;54576;52.020;5.536;2022-12-18T13:53:54;22.35;;;12.35;;
67776;SDS011;54576;52.020;5.536;2022-12-18T13:56:27;21.00;;;11.82;;
67776;SDS011;54576;52.020;5.536;2022-12-18T13:59:05;21.92;;;10.70;;
67776;SDS011;54576;52.020;5.536;2022-12-18T14:01:47;21.98;;;10.75;;
67776;SDS011;54576;52.020;5.536;2022-12-18T14:04:24;19.50;;;10.95;;
67776;SDS011;54576;52.020;5.536;2022-12-18T14:06:53;19.15;;;10.45;;
67776;SDS011;54576;52.020;5.536;2022-12-18T14:09:28;21.45;;;11.10;;
67776;SDS011;54576;52.020;5.536;2022-12-18T14:11:56;16.25;;;10.05;;
67776;SDS011;54576;52.020;5.536;2022-12-18T14:14:46;20.02;;;10.27;;
67776;SDS011;54576;52.020;5.536;2022-12-18T14:17:14;17.60;;;10.48;;
67776;SDS011;54576;52.020;5.536;2022-12-18T14:19:41;21.17;;;10.32;;
67776;SDS011;54576;52.020;5.536;2022-12-18T14:22:15;19.23;;;9.38;;
67776;SDS011;54576;52.020;5.536;2022-12-18T14:24:43;26.02;;;10.85;;
67776;SDS011;54576;52.020;5.536;2022-12-18T14:27:22;25.10;;;11.38;;
67776;SDS011;54576;52.020;5.536;2022-12-18T14:29:52;24.75;;;10.95;;
67776;SDS011;54576;52.020;5.536;2022-12-18T14:32:18;17.38;;;10.70;;
67776;SDS011;54576;52.020;5.536;2022-12-18T14:34:52;20.58;;;10.63;;
67776;SDS011;54576;52.020;5.536;2022-12-18T14:37:27;24.77;;;11.35;;
67776;SDS011;54576;52.020;5.536;2022-12-18T14:39:57;21.65;;;9.95;;
67776;SDS011;54576;52.020;5.536;2022-12-18T14:42:29;21.80;;;10.05;;
67776;SDS011;54576;52.020;5.536;2022-12-18T14:47:58;19.77;;;11.45;;
67776;SDS011;54576;52.020;5.536;2022-12-18T14:50:25;23.45;;;12.00;;
67776;SDS011;54576;52.020;5.536;2022-12-18T14:52:51;20.17;;;11.13;;
67776;SDS011;54576;52.020;5.536;2022-12-18T14:55:17;19.83;;;11.05;;
67776;SDS011;54576;52.020;5.536;2022-12-18T14:57:45;21.77;;;10.82;;
67776;SDS011;54576;52.020;5.536;2022-12-18T15:02:42;25.00;;;13.10;;
67776;SDS011;54576;52.020;5.536;2022-12-18T15:07:42;23.85;;;11.15;;
67776;SDS011;54576;52.020;5.536;2022-12-18T15:10:13;26.05;;;11.75;;
67776;SDS011;54576;52.020;5.536;2022-12-18T15:12:50;22.70;;;10.52;;
67776;SDS011;54576;52.020;5.536;2022-12-18T15:18:02;24.25;;;11.85;;
67776;SDS011;54576;52.020;5.536;2022-12-18T15:23:35;19.23;;;10.35;;
67776;SDS011;54576;52.020;5.536;2022-12-18T15:26:18;21.23;;;10.85;;
67776;SDS011;54576;52.020;5.536;2022-12-18T15:28:52;21.63;;;11.30;;
67776;SDS011;54576;52.020;5.536;2022-12-18T15:36:23;21.58;;;11.60;;
67776;SDS011;54576;52.020;5.536;2022-12-18T15:38:49;25.38;;;11.05;;
67776;SDS011;54576;52.020;5.536;2022-12-18T15:41:16;24.73;;;12.05;;
67776;SDS011;54576;52.020;5.536;2022-12-18T15:43:44;21.98;;;10.57;;
67776;SDS011;54576;52.020;5.536;2022-12-18T15:46:12;24.35;;;11.27;;
67776;SDS011;54576;52.020;5.536;2022-12-18T15:48:40;23.48;;;12.02;;
67776;SDS011;54576;52.020;5.536;2022-12-18T15:54:03;27.15;;;12.07;;
67776;SDS011;54576;52.020;5.536;2022-12-18T15:56:31;25.75;;;11.75;;
67776;SDS011;54576;52.020;5.536;2022-12-18T15:59:17;21.95;;;11.23;;
67776;SDS011;54576;52.020;5.536;2022-12-18T16:01:44;27.15;;;13.48;;
67776;SDS011;54576;52.020;5.536;2022-12-18T16:04:15;21.05;;;11.73;;
67776;SDS011;54576;52.020;5.536;2022-12-18T16:06:42;19.77;;;11.40;;
67776;SDS011;54576;52.020;5.536;2022-12-18T16:09:11;27.15;;;12.52;;
67776;SDS011;54576;52.020;5.536;2022-12-18T16:11:37;23.92;;;13.55;;
67776;SDS011;54576;52.020;5.536;2022-12-18T16:14:22;30.63;;;13.77;;
67776;SDS011;54576;52.020;5.536;2022-12-18T16:16:57;28.45;;;13.05;;
67776;SDS011;54576;52.020;5.536;2022-12-18T16:19:24;30.33;;;11.90;;
67776;SDS011;54576;52.020;5.536;2022-12-18T16:21:51;29.83;;;12.52;;